Time;durP1;ratioP1;P1;durP2;ratioP2;P2;SDS_P1;SDS_P2;PMS_P1;PMS_P2;Temp;Humidity;BMP_temperature;BMP_pressure;BME280_temperature;BME280_humidity;BME280_pressure;Samples;Min_cycle;Max_cycle;Signal;HPM_P1;HPM_P2
2023/10/10 00:02:18;;;;;;;9.30;4.00;;;;;;;9.57;43.06;100237.27;108040;1254;61005;-62
2023/10/10 00:04:49;;;;;;;11.00;4.60;;;;;;;9.43;43.64;100238.40;108101;1254;60319;-64
2023/10/10 00:07:16;;;;;;;9.80;3.90;;;;;;;9.35;44.06;100237.06;108048;1254;74493;-66
2023/10/10 00:09:44;;;;;;;5.60;3.40;;;;;;;9.36;44.11;100234.77;108102;1254;70122;-67
2023/10/10 00:12:18;;;;;;;11.00;4.30;;;;;;;9.07;44.63;100234.60;108094;1254;72736;-63
2023/10/10 00:14:50;;;;;;;9.90;4.40;;;;;;;9.29;44.50;100232.88;108040;1254;61160;-64
2023/10/10 00:17:17;;;;;;;8.60;3.40;;;;;;;9.44;44.31;100230.31;108184;1254;60427;-65
2023/10/10 00:19:44;;;;;;;8.40;4.30;;;;;;;9.61;44.17;100237.14;108301;1255;73927;-64
2023/10/10 00:22:11;;;;;;;8.50;4.30;;;;;;;9.71;44.08;100234.38;108135;1254;70098;-65
2023/10/10 00:24:38;;;;;;;10.60;5.10;;;;;;;9.45;44.60;100237.63;108073;1257;73028;-66
2023/10/10 00:27:14;;;;;;;11.10;4.60;;;;;;;9.72;44.55;100235.41;108104;1253;60364;-65
2023/10/10 00:29:43;;;;;;;7.10;3.90;;;;;;;9.82;44.72;100234.91;108167;1254;60453;-66
2023/10/10 00:32:39;;;;;;;5.80;3.50;;;;;;;10.00;44.78;100232.23;108080;1257;73656;-66
2023/10/10 00:34:59;;;;;;;7.80;3.90;;;;;;;9.88;45.53;100229.09;108087;1254;70134;-66
2023/10/10 00:37:29;;;;;;;10.80;3.80;;;;;;;9.92;45.89;100229.50;108061;1254;73482;-67
2023/10/10 00:39:56;;;;;;;9.10;3.90;;;;;;;9.95;46.25;100226.25;108072;1253;61016;-67
2023/10/10 00:42:40;;;;;;;9.90;3.90;;;;;;;9.93;46.44;100227.55;108243;1254;60417;-66
2023/10/10 00:45:14;;;;;;;8.50;3.90;;;;;;;10.27;45.87;100225.89;108347;1257;73519;-67
2023/10/10 00:47:43;;;;;;;11.90;3.90;;;;;;;10.54;45.29;100227.06;108250;1254;70865;-67
2023/10/10 00:50:15;;;;;;;7.00;3.20;;;;;;;10.49;45.46;100225.15;108210;1254;72122;-67
2023/10/10 00:52:48;;;;;;;7.10;3.70;;;;;;;10.48;45.44;100223.44;108212;1257;60956;-66
2023/10/10 00:55:21;;;;;;;7.90;4.00;;;;;;;10.64;45.20;100225.52;108113;1253;60224;-65
2023/10/10 00:57:52;;;;;;;8.00;3.90;;;;;;;10.61;45.13;100228.25;108209;1256;74360;-64
2023/10/10 01:00:20;;;;;;;10.00;3.90;;;;;;;10.65;45.21;100226.33;108246;1254;70726;-66
2023/10/10 01:03:00;;;;;;;9.00;4.10;;;;;;;10.71;44.89;100227.00;108277;1253;72741;-65
2023/10/10 01:05:39;;;;;;;8.10;3.60;;;;;;;10.82;44.72;100230.46;108256;1254;60357;-66
2023/10/10 01:08:08;;;;;;;8.90;4.60;;;;;;;11.01;44.40;100229.75;108283;1253;60314;-64
2023/10/10 01:10:43;;;;;;;8.10;3.70;;;;;;;11.27;43.73;100227.40;108059;1253;73700;-65
2023/10/10 01:13:10;;;;;;;10.70;4.10;;;;;;;11.26;43.84;100231.48;108305;1252;70134;-64
2023/10/10 01:15:37;;;;;;;7.10;4.00;;;;;;;11.28;43.87;100231.91;108229;1253;71471;-64
2023/10/10 01:18:13;;;;;;;8.40;3.50;;;;;;;11.17;43.84;100231.27;108152;1253;61270;-64
2023/10/10 01:20:51;;;;;;;12.50;4.10;;;;;;;11.17;44.10;100238.13;108148;1254;60434;-64
2023/10/10 01:23:26;;;;;;;8.10;3.60;;;;;;;11.21;43.76;100241.16;108271;1253;73852;-66
2023/10/10 01:25:52;;;;;;;6.90;3.60;;;;;;;11.27;43.65;100245.14;108215;1254;69915;-66
2023/10/10 01:28:34;;;;;;;9.60;4.40;;;;;;;11.27;43.70;100243.19;108136;1257;72505;-63
2023/10/10 01:31:04;;;;;;;8.70;3.90;;;;;;;11.34;43.40;100245.04;108126;1253;60444;-64
2023/10/10 01:36:11;;;;;;;7.00;3.80;;;;;;;11.31;43.38;100241.13;108125;1254;74337;-66
2023/10/10 01:38:55;;;;;;;6.60;3.60;;;;;;;11.36;43.11;100243.39;108375;1253;70106;-64
2023/10/10 01:41:24;;;;;;;8.00;4.20;;;;;;;11.37;43.23;100247.39;108084;1254;72608;-69
2023/10/10 01:43:53;;;;;;;10.50;4.10;;;;;;;11.37;43.30;100248.08;108199;1254;61379;-64
2023/10/10 01:46:29;;;;;;;6.90;3.30;;;;;;;11.23;43.41;100246.35;108172;1257;60351;-64
2023/10/10 01:48:56;;;;;;;9.90;4.00;;;;;;;11.21;43.62;100249.08;108116;1254;73625;-64
2023/10/10 01:51:33;;;;;;;9.70;3.20;;;;;;;11.36;43.27;100245.70;108102;1254;67858;-66
2023/10/10 01:54:03;;;;;;;9.00;4.50;;;;;;;11.49;42.96;100243.58;108075;1257;72426;-63
2023/10/10 01:56:30;;;;;;;12.80;4.30;;;;;;;11.51;43.13;100246.70;108095;1254;61191;-65
2023/10/10 01:58:56;;;;;;;7.50;3.80;;;;;;;11.51;42.96;100236.48;108081;1253;60321;-65
2023/10/10 02:01:27;;;;;;;8.70;3.70;;;;;;;11.55;42.97;100230.51;108062;1254;74309;-64
2023/10/10 02:03:53;;;;;;;8.90;4.40;;;;;;;11.52;43.10;100229.93;108044;1254;69323;-66
2023/10/10 02:06:27;;;;;;;7.10;4.20;;;;;;;11.54;42.94;100229.67;108033;1253;72467;-65
2023/10/10 02:08:59;;;;;;;8.60;4.40;;;;;;;11.43;43.10;100230.98;108069;1254;61206;-65
2023/10/10 02:11:31;;;;;;;13.00;4.90;;;;;;;11.44;43.10;100236.05;108053;1257;60117;-66
2023/10/10 02:13:59;;;;;;;7.30;3.90;;;;;;;11.38;43.08;100238.23;108029;1254;73614;-66
2023/10/10 02:16:35;;;;;;;9.60;4.30;;;;;;;11.45;43.08;100237.40;108114;1254;70732;-65
2023/10/10 02:19:15;;;;;;;11.80;4.30;;;;;;;11.40;42.98;100230.21;108147;1254;71365;-64
2023/10/10 02:21:43;;;;;;;11.10;3.90;;;;;;;11.50;42.88;100235.48;108098;1253;60907;-65
2023/10/10 02:24:38;;;;;;;9.10;4.10;;;;;;;11.55;42.95;100228.39;108103;1253;60329;-67
2023/10/10 02:27:04;;;;;;;10.30;4.50;;;;;;;11.57;42.79;100229.04;108058;1254;73416;-66
2023/10/10 02:32:09;;;;;;;10.70;4.60;;;;;;;11.63;42.86;100228.98;108047;1253;71206;-65
2023/10/10 02:34:37;;;;;;;7.70;4.40;;;;;;;11.56;42.76;100227.13;108036;1253;60878;-65
2023/10/10 02:39:56;;;;;;;12.70;5.30;;;;;;;11.59;42.62;100226.85;108021;1253;74267;-65
2023/10/10 02:42:23;;;;;;;9.50;4.40;;;;;;;11.50;42.62;100228.09;108067;1253;70190;-64
2023/10/10 02:44:57;;;;;;;6.80;4.20;;;;;;;11.33;43.02;100228.90;108171;1254;73260;-65
2023/10/10 02:47:30;;;;;;;10.30;4.00;;;;;;;11.33;42.94;100232.27;108217;1254;60161;-66
2023/10/10 02:50:09;;;;;;;7.80;4.00;;;;;;;11.40;42.80;100226.35;108127;1253;60439;-64
2023/10/10 02:52:39;;;;;;;10.90;4.40;;;;;;;11.25;43.00;100229.24;108271;1253;71538;-65
2023/10/10 02:55:22;;;;;;;10.10;3.80;;;;;;;11.04;43.24;100228.07;108207;1254;70413;-66
2023/10/10 02:57:53;;;;;;;11.60;4.80;;;;;;;11.15;42.99;100222.93;108247;1253;72726;-65
2023/10/10 03:02:49;;;;;;;10.70;4.70;;;;;;;11.08;42.75;100220.02;108233;1253;60292;-66
2023/10/10 03:05:20;;;;;;;8.90;4.20;;;;;;;10.87;43.16;100220.97;108365;1253;72935;-66
2023/10/10 03:07:51;;;;;;;13.70;4.70;;;;;;;10.93;42.93;100221.27;108195;1254;71039;-65
2023/10/10 03:10:22;;;;;;;11.50;4.40;;;;;;;10.89;42.85;100221.97;108261;1254;72919;-66
2023/10/10 03:12:50;;;;;;;10.70;5.40;;;;;;;10.71;43.08;100224.71;108236;1254;61029;-65
2023/10/10 03:38:57;;;;;;;14.80;6.60;;;;;;;9.74;44.27;100227.97;108276;1252;61138;-64
2023/10/10 05:24:09;;;;;;;12.40;6.40;;;;;;;10.09;47.60;100311.21;108204;1253;61021;-70
2023/10/10 05:26:46;;;;;;;12.80;5.90;;;;;;;10.29;47.14;100314.81;108215;1252;59470;-66
2023/10/10 05:29:13;;;;;;;17.90;7.10;;;;;;;10.53;46.65;100318.22;108266;1253;74137;-67
2023/10/10 05:31:44;;;;;;;11.50;6.20;;;;;;;10.19;47.34;100316.32;108301;1253;69975;-66
2023/10/10 05:34:14;;;;;;;;;;;;;;;10.12;46.93;100316.38;108329;1254;71475;-66
2023/10/10 05:36:44;;;;;;;19.90;7.20;;;;;;;10.46;46.95;100318.61;108317;1253;60936;-66
2023/10/10 05:39:17;;;;;;;14.90;6.30;;;;;;;11.07;45.88;100323.55;108304;1253;59499;-67
2023/10/10 05:41:44;;;;;;;16.00;7.10;;;;;;;11.51;45.50;100329.32;108204;1254;72836;-66
2023/10/10 05:44:13;;;;;;;11.50;5.90;;;;;;;12.54;44.06;100321.17;108238;1253;70327;-66
2023/10/10 05:46:40;;;;;;;11.50;5.90;;;;;;;12.88;42.71;100321.36;108179;1253;73313;-66
2023/10/10 05:49:06;;;;;;;14.80;5.80;;;;;;;13.27;41.76;100323.30;108075;1253;60856;-65
2023/10/10 05:51:33;;;;;;;11.20;5.70;;;;;;;13.50;41.06;100321.07;108213;1253;59610;-65
2023/10/10 05:53:59;;;;;;;8.90;5.10;;;;;;;13.67;40.09;100315.36;108174;1253;73082;-65
2023/10/10 05:56:26;;;;;;;15.30;5.90;;;;;;;13.99;39.77;100312.40;108112;1254;59646;-67
2023/10/10 05:58:52;;;;;;;20.90;6.30;;;;;;;14.16;39.11;100314.58;108148;1253;59529;-68
2023/10/10 06:01:21;;;;;;;14.80;5.40;;;;;;;14.00;39.41;100317.84;108219;1254;59956;-66
2023/10/10 06:03:47;;;;;;;13.50;5.90;;;;;;;14.26;39.06;100325.23;108203;1254;59974;-67
2023/10/10 06:06:15;;;;;;;10.80;5.20;;;;;;;14.35;38.61;100327.64;108197;1253;59774;-65
2023/10/10 06:08:42;;;;;;;11.00;5.20;;;;;;;14.08;39.17;100327.70;108168;1254;70713;-67
2023/10/10 06:11:15;;;;;;;13.80;5.60;;;;;;;14.37;39.02;100328.73;108217;1254;72581;-66
2023/10/10 06:13:43;;;;;;;10.90;5.20;;;;;;;14.73;38.99;100329.27;108260;1254;61005;-67
2023/10/10 06:16:12;;;;;;;13.40;5.60;;;;;;;16.04;37.64;100328.29;108274;1253;59615;-68
2023/10/10 06:18:44;;;;;;;12.10;5.50;;;;;;;16.94;37.04;100328.55;108272;1254;74303;-66
2023/10/10 06:21:11;;;;;;;13.70;5.60;;;;;;;17.91;35.10;100327.86;108166;1253;69068;-65
2023/10/10 06:23:41;;;;;;;10.60;5.20;;;;;;;18.69;33.44;100328.27;108186;1253;72507;-66
2023/10/10 06:26:08;;;;;;;10.00;5.00;;;;;;;19.57;32.73;100332.52;108148;1253;60338;-66
2023/10/10 06:28:47;;;;;;;16.20;5.00;;;;;;;20.05;31.06;100336.38;108195;1253;60151;-67
2023/10/10 06:31:17;;;;;;;127.00;14.70;;;;;;;20.24;30.09;100335.18;108174;1253;71864;-66
2023/10/10 06:33:44;;;;;;;12.60;5.70;;;;;;;20.36;29.59;100333.15;108135;1257;70753;-66
2023/10/10 06:41:39;;;;;;;20.60;5.70;;;;;;;20.39;29.35;100341.73;108322;1254;59544;-69
2023/10/10 06:44:13;;;;;;;10.90;5.50;;;;;;;20.51;29.35;100341.52;108284;1253;72891;-68
2023/10/10 06:46:40;;;;;;;13.80;4.60;;;;;;;20.96;28.70;100339.39;108309;1253;70270;-68
2023/10/10 06:49:08;;;;;;;7.80;4.70;;;;;;;21.48;28.41;100339.46;108236;1254;72354;-67
2023/10/10 06:51:40;;;;;;;11.00;4.70;;;;;;;21.78;27.74;100338.64;108270;1253;59567;-67
2023/10/10 06:54:19;;;;;;;9.20;4.40;;;;;;;21.54;27.01;100338.81;108257;1256;59528;-67
2023/10/10 06:59:29;;;;;;;12.30;4.90;;;;;;;20.91;28.18;100338.14;108213;1253;70133;-66
2023/10/10 07:02:13;;;;;;;9.30;4.40;;;;;;;21.32;28.15;100340.55;108289;1253;71532;-67
2023/10/10 07:04:41;;;;;;;9.60;4.80;;;;;;;21.52;27.63;100345.42;108295;1252;59605;-68
2023/10/10 07:07:10;;;;;;;9.50;4.40;;;;;;;21.28;27.68;100344.91;108265;1253;59009;-67
2023/10/10 07:09:37;;;;;;;10.20;4.70;;;;;;;21.13;28.01;100338.77;108260;1254;71953;-67
2023/10/10 07:12:10;;;;;;;10.00;4.30;;;;;;;21.25;28.04;100338.04;108213;1253;70132;-68
2023/10/10 07:14:46;;;;;;;10.30;4.30;;;;;;;22.07;27.67;100331.89;108211;1253;71454;-67
2023/10/10 07:17:13;;;;;;;10.00;3.80;;;;;;;22.87;26.49;100325.21;108267;1254;59994;-68
2023/10/10 07:22:27;;;;;;;8.70;4.30;;;;;;;24.11;25.03;100317.88;108283;1253;72709;-69
2023/10/10 07:25:06;;;;;;;8.10;4.20;;;;;;;24.58;24.18;100314.20;108263;1254;69370;-68
2023/10/10 07:27:39;;;;;;;7.90;3.70;;;;;;;25.07;23.45;100316.75;108294;1254;72543;-68
2023/10/10 07:32:48;;;;;;;6.10;3.90;;;;;;;25.57;22.87;100321.30;108268;1253;60083;-69
2023/10/10 07:35:15;;;;;;;7.60;4.00;;;;;;;25.96;22.96;100320.63;108343;1253;72785;-68
2023/10/10 07:37:43;;;;;;;8.00;3.90;;;;;;;26.22;22.40;100323.59;108241;1253;70092;-68
2023/10/10 07:43:03;;;;;;;6.00;3.90;;;;;;;27.08;22.12;100318.88;108169;1253;59442;-68
2023/10/10 07:45:33;;;;;;;6.40;4.00;;;;;;;27.29;21.72;100316.28;108196;1253;59433;-67
2023/10/10 07:50:34;;;;;;;5.80;3.50;;;;;;;28.32;20.88;100316.95;108183;1254;70696;-66
2023/10/10 07:53:12;;;;;;;5.00;3.10;;;;;;;28.82;20.34;100318.27;108150;1253;71476;-68
2023/10/10 07:58:27;;;;;;;6.90;3.60;;;;;;;29.29;19.41;100321.27;108066;1253;59418;-68
2023/10/10 08:01:17;;;;;;;4.60;3.00;;;;;;;29.06;19.27;100319.98;108177;1256;73107;-67
2023/10/10 08:03:44;;;;;;;7.90;3.60;;;;;;;28.49;19.57;100315.74;108194;1254;70573;-67
2023/10/10 08:06:16;;;;;;;8.10;3.50;;;;;;;28.46;20.02;100320.66;108251;1252;70829;-67
2023/10/10 08:08:49;;;;;;;7.30;3.70;;;;;;;28.74;20.06;100320.65;108235;1254;60945;-67
2023/10/10 08:11:27;;;;;;;14.30;8.00;;;;;;;28.95;19.82;100323.57;108239;1254;60533;-67
2023/10/10 08:13:54;;;;;;;8.70;3.60;;;;;;;29.03;19.63;100323.58;108232;1256;73984;-68
2023/10/10 08:16:23;;;;;;;6.00;3.40;;;;;;;28.95;19.83;100327.70;108158;1256;69466;-69
2023/10/10 08:18:55;;;;;;;7.00;3.30;;;;;;;29.17;19.81;100333.59;108190;1254;72451;-68
2023/10/10 08:21:25;;;;;;;10.20;3.70;;;;;;;29.48;19.02;100337.04;108174;1256;60017;-65
2023/10/10 08:23:58;;;;;;;6.60;3.80;;;;;;;29.50;19.24;100339.30;108134;1257;59608;-67
2023/10/10 08:26:29;;;;;;;7.20;3.40;;;;;;;30.11;18.63;100345.53;108167;1254;72373;-67
2023/10/10 08:28:56;;;;;;;6.20;2.70;;;;;;;30.16;18.59;100351.50;108220;1252;70386;-67
2023/10/10 08:31:22;;;;;;;6.00;2.90;;;;;;;30.05;18.65;100356.70;108088;1253;72728;-68
2023/10/10 08:33:49;;;;;;;7.50;3.00;;;;;;;30.00;18.62;100351.54;108209;1254;60437;-69
2023/10/10 08:36:24;;;;;;;35.80;5.50;;;;;;;29.77;18.81;100349.23;108170;1253;60946;-69
2023/10/10 08:38:56;;;;;;;8.80;2.90;;;;;;;29.74;18.89;100347.20;108205;1254;73802;-69
2023/10/10 08:41:28;;;;;;;6.00;2.90;;;;;;;30.00;18.71;100346.95;108199;1254;69094;-68
2023/10/10 08:44:06;;;;;;;4.80;2.40;;;;;;;30.11;18.49;100343.56;108261;1254;72433;-68
2023/10/10 08:46:40;;;;;;;9.20;2.50;;;;;;;30.32;18.30;100338.70;108300;1252;60421;-67
2023/10/10 08:49:08;;;;;;;5.00;2.00;;;;;;;30.36;18.30;100340.33;108272;1253;59558;-67
2023/10/10 08:51:35;;;;;;;5.40;2.60;;;;;;;30.47;18.22;100341.11;108240;1252;73899;-69
2023/10/10 08:54:11;;;;;;;4.50;2.80;;;;;;;30.89;17.80;100342.90;108254;1254;70310;-68
2023/10/10 08:56:39;;;;;;;5.20;2.10;;;;;;;30.66;17.64;100350.08;108304;1254;73046;-67
2023/10/10 08:59:07;;;;;;;4.40;2.40;;;;;;;29.98;18.17;100352.84;108259;1253;60374;-68
2023/10/10 09:01:35;;;;;;;4.70;2.60;;;;;;;29.95;18.43;100356.21;108308;1254;60578;-67
2023/10/10 09:04:06;;;;;;;6.50;2.40;;;;;;;29.48;18.65;100362.51;108267;1253;72926;-67
2023/10/10 09:09:34;;;;;;;5.20;2.50;;;;;;;29.24;18.65;100369.22;108227;1256;72608;-69
2023/10/10 09:12:03;;;;;;;4.00;2.00;;;;;;;29.58;18.57;100364.65;108201;1253;60361;-67
2023/10/10 09:14:43;;;;;;;3.80;2.00;;;;;;;29.90;18.04;100359.52;108248;1254;60160;-69
2023/10/10 09:17:28;;;;;;;4.00;2.30;;;;;;;30.27;17.54;100352.52;108297;1253;73686;-69
2023/10/10 09:19:57;;;;;;;3.40;2.10;;;;;;;29.52;17.74;100354.93;108214;1255;69662;-68
2023/10/10 09:22:42;;;;;;;4.90;2.20;;;;;;;29.23;18.18;100358.81;108200;1254;71231;-69
2023/10/10 09:25:23;;;;;;;2.20;1.60;;;;;;;28.97;18.41;100353.32;108216;1254;61609;-69
2023/10/10 09:27:58;;;;;;;3.70;1.60;;;;;;;28.60;18.66;100354.20;108262;1253;60277;-68
2023/10/10 09:30:31;;;;;;;3.30;1.60;;;;;;;28.31;18.83;100352.63;108206;1252;71983;-68
2023/10/10 09:33:03;;;;;;;4.50;1.70;;;;;;;28.65;18.73;100343.55;108241;1254;70319;-69
2023/10/10 09:35:30;;;;;;;6.80;1.90;;;;;;;28.82;18.92;100346.83;108232;1253;72662;-67
2023/10/10 09:38:00;;;;;;;4.80;2.10;;;;;;;29.16;18.29;100347.23;108227;1253;60290;-68
2023/10/10 09:40:33;;;;;;;3.10;1.70;;;;;;;29.78;18.03;100350.58;108235;1254;60299;-68
2023/10/10 09:48:28;;;;;;;6.40;1.60;;;;;;;30.25;17.15;100354.53;108103;1254;72487;-69
2023/10/10 09:51:30;;;;;;;3.80;1.60;;;;;;;30.13;17.19;100360.15;108135;1253;60418;-68
2023/10/10 09:54:15;;;;;;;3.10;1.60;;;;;;;30.07;17.05;100353.35;108132;1254;60306;-69
2023/10/10 09:56:50;;;;;;;4.30;1.60;;;;;;;30.19;17.18;100358.94;108181;1254;73640;-71
2023/10/10 09:59:20;;;;;;;3.10;1.40;;;;;;;30.06;17.23;100357.48;108173;1253;70098;-68
2023/10/10 10:01:47;;;;;;;3.60;1.50;;;;;;;29.18;17.21;100359.09;108263;1254;72719;-69
2023/10/10 10:04:24;;;;;;;4.70;1.60;;;;;;;28.16;17.97;100362.20;108230;1254;59174;-68
2023/10/10 10:07:01;;;;;;;2.90;1.20;;;;;;;27.67;18.54;100359.39;108221;1256;60356;-68
2023/10/10 10:09:45;;;;;;;2.30;1.40;;;;;;;27.88;18.67;100361.97;108247;1254;74088;-66
2023/10/10 10:12:31;;;;;;;2.70;1.40;;;;;;;27.44;19.16;100358.91;108154;1254;70308;-68
2023/10/10 10:15:05;;;;;;;1.90;1.20;;;;;;;27.26;19.19;100352.84;108288;1254;72448;-68
2023/10/10 10:17:54;;;;;;;2.80;1.40;;;;;;;27.03;18.77;100350.88;108256;1253;60359;-68
2023/10/10 10:23:27;;;;;;;6.50;1.30;;;;;;;26.38;19.06;100354.25;108264;1254;72803;-67
2023/10/10 10:26:21;;;;;;;8.70;1.70;;;;;;;26.00;19.69;100359.43;108269;1252;70366;-68
2023/10/10 10:28:56;;;;;;;3.00;1.30;;;;;;;25.51;20.23;100362.71;108231;1254;72689;-69
2023/10/10 10:31:28;;;;;;;2.20;1.30;;;;;;;24.93;20.94;100367.25;108258;1252;60399;-67
2023/10/10 10:34:05;;;;;;;4.60;1.40;;;;;;;24.52;20.78;100372.22;108247;1254;60488;-68
2023/10/10 10:36:45;;;;;;;2.90;1.10;;;;;;;24.03;21.56;100375.70;108273;1252;73884;-68
2023/10/10 10:39:20;;;;;;;4.20;1.30;;;;;;;23.48;22.11;100375.66;108225;1254;68902;-67
2023/10/10 10:41:53;;;;;;;6.70;1.70;;;;;;;23.27;22.25;100376.22;108268;1251;72420;-67
2023/10/10 10:47:35;;;;;;;3.10;1.40;;;;;;;23.81;22.47;100372.64;108290;1251;60341;-68
2023/10/10 10:50:04;;;;;;;2.80;1.40;;;;;;;24.01;21.88;100371.92;108171;1251;73778;-65
2023/10/10 10:53:06;;;;;;;3.60;1.30;;;;;;;23.52;22.06;100374.58;108281;1251;70150;-68
2023/10/10 10:55:39;;;;;;;3.60;1.30;;;;;;;23.07;22.56;100377.04;108309;1251;72608;-68
2023/10/10 10:58:08;;;;;;;3.80;1.30;;;;;;;22.95;22.48;100377.33;108234;1251;60229;-67
2023/10/10 11:00:56;;;;;;;5.40;1.40;;;;;;;22.82;22.32;100372.55;108244;1251;60572;-67
2023/10/10 11:03:33;;;;;;;2.60;1.30;;;;;;;22.59;22.61;100377.84;108236;1251;73584;-68
2023/10/10 11:06:10;;;;;;;3.90;1.70;;;;;;;22.40;22.72;100386.73;108228;1251;70311;-67
2023/10/10 11:13:54;;;;;;;4.10;1.20;;;;;;;23.32;22.83;100380.59;108319;1251;60312;-67
2023/10/10 11:16:24;;;;;;;2.30;1.20;;;;;;;23.81;22.70;100383.88;108362;1251;73617;-68
2023/10/10 11:18:57;;;;;;;3.50;1.50;;;;;;;24.00;22.47;100385.48;108263;1251;70361;-67
2023/10/10 11:21:28;;;;;;;3.30;1.40;;;;;;;24.23;21.34;100389.13;108246;1251;72932;-67
2023/10/10 11:23:57;;;;;;;5.20;1.40;;;;;;;23.91;21.74;100399.00;108285;1251;60948;-68
2023/10/10 11:26:27;;;;;;;3.20;1.20;;;;;;;23.29;21.94;100398.60;108251;1251;60329;-67
2023/10/10 11:28:59;;;;;;;1.60;1.00;;;;;;;23.12;22.17;100402.98;108230;1251;73612;-68
2023/10/10 11:31:29;;;;;;;4.40;1.10;;;;;;;22.86;22.68;100408.04;108294;1251;70264;-69
2023/10/10 11:34:09;;;;;;;3.00;1.50;;;;;;;22.58;22.49;100413.14;108305;1251;72452;-67
2023/10/10 11:36:39;;;;;;;1.90;1.30;;;;;;;22.63;22.70;100417.08;108241;1251;60348;-67
2023/10/10 11:39:34;;;;;;;1.30;0.90;;;;;;;22.49;22.81;100419.81;108332;1251;60364;-68
2023/10/10 11:42:04;;;;;;;1.90;1.20;;;;;;;22.26;22.83;100420.42;108216;1254;75042;-66
2023/10/10 11:44:33;;;;;;;2.70;1.10;;;;;;;22.01;23.22;100421.37;108296;1254;70259;-68
2023/10/10 11:47:07;;;;;;;1.90;1.00;;;;;;;21.96;23.43;100419.08;108236;1253;72655;-66
2023/10/10 11:49:33;;;;;;;4.80;1.50;;;;;;;21.83;23.38;100419.91;108208;1254;60403;-68
2023/10/10 11:52:00;;;;;;;1.80;1.10;;;;;;;21.50;23.75;100418.78;108152;1254;60031;-67
2023/10/10 11:54:27;;;;;;;2.20;1.30;;;;;;;21.15;24.35;100423.95;108181;1254;59247;-66
2023/10/10 11:56:54;;;;;;;1.30;0.90;;;;;;;21.17;24.34;100423.84;108247;1254;70605;-68
2023/10/10 11:59:22;;;;;;;3.50;1.60;;;;;;;21.07;24.80;100423.66;108229;1254;73711;-67
2023/10/10 12:01:51;;;;;;;2.70;1.40;;;;;;;20.91;24.80;100422.59;108184;1254;60416;-67
2023/10/10 12:04:30;;;;;;;1.90;1.30;;;;;;;20.93;25.17;100425.08;108232;1254;60408;-66
2023/10/10 12:06:59;;;;;;;2.20;1.00;;;;;;;20.78;25.61;100423.55;108154;1252;75198;-67
2023/10/10 12:09:29;;;;;;;3.40;1.10;;;;;;;20.92;25.25;100425.70;108149;1253;70203;-67
2023/10/10 12:11:59;;;;;;;2.50;1.20;;;;;;;20.95;25.18;100423.85;108205;1257;73792;-67
2023/10/10 12:14:30;;;;;;;3.90;0.90;;;;;;;21.17;25.22;100429.17;108254;1254;60482;-68
2023/10/10 12:17:05;;;;;;;2.40;1.10;;;;;;;21.21;24.71;100430.27;108209;1252;61637;-67
2023/10/10 12:19:36;;;;;;;2.10;1.20;;;;;;;21.13;25.05;100427.52;108245;1254;74447;-65
2023/10/10 12:22:10;;;;;;;2.20;1.10;;;;;;;21.37;24.89;100426.77;108220;1254;71652;-64
2023/10/10 12:24:39;;;;;;;3.00;1.10;;;;;;;21.65;24.61;100428.54;108212;1253;72077;-66
2023/10/10 12:27:14;;;;;;;2.00;1.10;;;;;;;21.70;24.66;100425.44;108246;1253;60351;-63
2023/10/10 12:29:41;;;;;;;2.50;1.10;;;;;;;21.59;24.38;100426.50;108248;1254;60391;-67
2023/10/10 12:32:15;;;;;;;2.00;1.10;;;;;;;21.62;24.61;100432.71;108261;1253;72584;-66
2023/10/10 12:34:43;;;;;;;2.20;1.10;;;;;;;21.64;24.69;100431.08;108245;1254;71538;-67
2023/10/10 12:37:10;;;;;;;1.80;1.00;;;;;;;21.43;24.43;100430.55;108227;1254;72364;-67
2023/10/10 12:39:37;;;;;;;2.90;1.10;;;;;;;21.37;25.00;100439.61;108226;1253;60318;-66
2023/10/10 12:42:07;;;;;;;2.50;1.30;;;;;;;21.40;24.58;100434.21;108309;1251;60229;-67
2023/10/10 12:44:34;;;;;;;1.90;1.20;;;;;;;21.44;24.83;100441.43;108247;1251;73962;-68
2023/10/10 12:47:06;;;;;;;1.70;1.00;;;;;;;21.37;24.94;100442.07;108302;1251;70093;-67
2023/10/10 12:49:36;;;;;;;2.20;1.30;;;;;;;20.99;24.90;100443.02;108296;1251;72628;-68
2023/10/10 12:52:11;;;;;;;2.40;1.00;;;;;;;20.95;24.96;100445.32;108312;1251;60287;-68
2023/10/10 12:54:38;;;;;;;2.40;1.10;;;;;;;20.99;25.14;100447.34;108332;1251;59717;-66
2023/10/10 12:57:13;;;;;;;4.10;1.60;;;;;;;20.88;25.13;100447.25;108248;1251;74075;-67
2023/10/10 12:59:46;;;;;;;1.40;0.80;;;;;;;20.79;25.56;100454.31;108328;1251;70832;-67
2023/10/10 13:02:15;;;;;;;3.30;1.20;;;;;;;20.88;25.34;100445.50;108348;1251;71419;-67
2023/10/10 13:04:46;;;;;;;3.10;1.10;;;;;;;20.67;25.42;100452.75;108318;1251;60374;-67
2023/10/10 13:07:15;;;;;;;2.10;1.00;;;;;;;20.36;25.82;100459.42;108322;1251;60306;-67
2023/10/10 13:09:43;;;;;;;2.40;1.80;;;;;;;20.14;25.98;100464.95;108318;1251;73843;-67
2023/10/10 13:12:18;;;;;;;2.40;1.10;;;;;;;20.09;26.79;100468.70;108269;1251;70217;-67
2023/10/10 13:14:50;;;;;;;1.40;0.90;;;;;;;20.18;26.36;100472.84;108300;1255;72609;-67
2023/10/10 13:19:52;;;;;;;2.60;1.00;;;;;;;20.26;26.29;100476.02;108301;1252;60399;-68
2023/10/10 13:22:21;;;;;;;5.20;1.20;;;;;;;20.22;26.38;100484.16;108279;1251;73273;-67
2023/10/10 13:24:49;;;;;;;3.20;1.40;;;;;;;19.98;26.69;100481.37;108331;1250;70510;-68
2023/10/10 13:27:17;;;;;;;2.70;1.00;;;;;;;20.01;27.11;100480.50;108271;1251;71159;-67
2023/10/10 13:29:44;;;;;;;3.20;1.20;;;;;;;19.84;26.96;100477.73;108305;1251;60293;-66
2023/10/10 13:32:10;;;;;;;4.90;1.40;;;;;;;19.90;26.76;100474.65;108301;1255;60344;-68
2023/10/10 13:34:37;;;;;;;3.20;0.80;;;;;;;19.86;26.65;100479.04;108285;1251;73850;-67
2023/10/10 13:37:07;;;;;;;2.50;1.40;;;;;;;19.65;26.61;100478.85;108297;1251;70190;-67
2023/10/10 13:39:43;;;;;;;2.40;1.10;;;;;;;19.61;26.99;100484.31;108251;1255;72454;-67
2023/10/10 13:42:14;;;;;;;2.80;1.00;;;;;;;19.53;26.63;100481.84;108270;1256;60357;-67
2023/10/10 13:44:41;;;;;;;3.20;1.20;;;;;;;19.67;26.51;100484.42;108209;1255;60453;-67
2023/10/10 13:47:08;;;;;;;2.50;1.10;;;;;;;19.67;26.70;100486.77;108074;1256;72956;-67
2023/10/10 13:49:44;;;;;;;2.80;1.10;;;;;;;19.42;26.50;100484.73;108195;1254;69535;-68
2023/10/10 13:52:16;;;;;;;4.80;1.00;;;;;;;19.43;26.72;100487.17;108193;1254;72640;-68
2023/10/10 13:54:43;;;;;;;2.60;1.10;;;;;;;19.38;26.73;100489.23;108261;1254;60584;-67
2023/10/10 13:57:09;;;;;;;1.20;0.80;;;;;;;19.40;26.52;100487.00;108353;1254;60328;-67
2023/10/10 13:59:36;;;;;;;1.90;1.00;;;;;;;19.50;26.68;100490.39;108320;1256;72524;-67
2023/10/10 14:02:04;;;;;;;1.10;0.80;;;;;;;19.38;26.58;100491.98;108316;1254;70626;-66
2023/10/10 14:04:45;;;;;;;6.90;1.00;;;;;;;19.21;27.17;100492.91;108238;1254;72445;-67
2023/10/10 14:07:14;;;;;;;1.70;1.00;;;;;;;19.40;26.91;100493.20;108237;1256;61062;-67
2023/10/10 14:09:44;;;;;;;1.50;0.90;;;;;;;19.54;26.56;100499.22;108271;1253;60313;-67
2023/10/10 14:12:31;;;;;;;2.20;0.90;;;;;;;19.54;26.86;100499.55;108258;1254;73930;-67
2023/10/10 14:14:58;;;;;;;2.10;1.10;;;;;;;19.44;26.95;100504.91;108272;1256;70288;-68
2023/10/10 14:17:25;;;;;;;1.50;0.90;;;;;;;19.39;26.81;100511.98;108246;1254;72676;-65
2023/10/10 14:19:52;;;;;;;2.10;1.20;;;;;;;19.29;27.26;100520.54;108241;1254;60342;-67
2023/10/10 14:22:22;;;;;;;2.90;1.20;;;;;;;19.15;27.05;100524.45;108189;1254;60331;-68
2023/10/10 14:24:50;;;;;;;3.20;1.20;;;;;;;19.14;27.13;100527.77;108272;1256;73817;-65
2023/10/10 14:27:20;;;;;;;2.20;0.90;;;;;;;19.02;27.64;100531.22;108307;1253;68132;-65
2023/10/10 14:29:47;;;;;;;2.50;1.20;;;;;;;19.00;27.38;100532.23;108235;1255;72684;-65
2023/10/10 14:32:14;;;;;;;1.40;1.00;;;;;;;18.84;27.94;100537.68;108298;1254;60421;-66
2023/10/10 14:34:57;;;;;;;2.10;1.30;;;;;;;18.74;28.20;100540.13;108306;1256;59556;-67
2023/10/10 14:37:24;;;;;;;1.90;1.30;;;;;;;18.66;28.10;100541.30;108249;1253;71639;-67
2023/10/10 14:40:11;;;;;;;3.60;1.40;;;;;;;18.33;28.72;100540.60;108245;1256;70150;-66